createdAt,value
2018-08-28T00:04:10.636Z,55.10
2018-08-28T00:09:14.512Z,55.30
2018-08-28T00:14:18.473Z,55.90
2018-08-28T00:19:37.851Z,55.70
2018-08-28T00:24:41.712Z,55.70
2018-08-28T00:29:45.615Z,56.20
2018-08-28T00:34:49.547Z,56.60
2018-08-28T00:39:53.631Z,56.80
2018-08-28T00:44:57.523Z,56.90
2018-08-28T00:50:01.469Z,57.20
2018-08-28T00:55:05.544Z,57.20
2018-08-28T01:00:09.369Z,57.60
2018-08-28T01:05:13.238Z,57.80
2018-08-28T01:10:17.135Z,57.80
2018-08-28T01:15:20.980Z,57.70
2018-08-28T01:20:24.798Z,58.30
2018-08-28T01:25:28.724Z,58.40
2018-08-28T01:30:34.597Z,58.50
2018-08-28T01:35:38.392Z,58.90
2018-08-28T01:40:42.145Z,58.60
2018-08-28T01:45:45.979Z,58.50
2018-08-28T01:50:49.970Z,59.00
2018-08-28T01:55:53.722Z,59.30
2018-08-28T02:00:57.476Z,59.60
2018-08-28T02:06:01.321Z,59.70
2018-08-28T02:11:05.127Z,59.70
2018-08-28T02:16:08.931Z,60.60
2018-08-28T02:21:12.711Z,60.80
2018-08-28T02:26:16.747Z,60.70
2018-08-28T02:31:20.878Z,61.00
2018-08-28T02:36:24.974Z,61.40
2018-08-28T02:41:28.869Z,61.20
2018-08-28T02:46:32.698Z,61.30
2018-08-28T02:51:37.104Z,61.30
2018-08-28T02:56:40.915Z,61.40
2018-08-28T03:01:44.844Z,61.40
2018-08-28T03:06:48.632Z,61.40
2018-08-28T03:11:52.550Z,61.50
2018-08-28T03:16:56.267Z,61.90
2018-08-28T03:22:00.179Z,61.80
2018-08-28T03:27:04.168Z,61.80
2018-08-28T03:32:07.869Z,61.50
2018-08-28T03:37:11.684Z,61.30
2018-08-28T03:42:15.351Z,61.80
2018-08-28T03:47:19.015Z,62.00
2018-08-28T03:52:22.698Z,62.40
2018-08-28T03:57:26.453Z,62.40
2018-08-28T04:02:33.293Z,62.30
2018-08-28T04:07:38.014Z,62.50
2018-08-28T04:12:41.589Z,62.50
2018-08-28T04:17:49.387Z,62.60
2018-08-28T04:22:53.074Z,63.00
2018-08-28T04:27:56.751Z,63.10
2018-08-28T04:33:00.339Z,63.20
2018-08-28T04:38:04.046Z,63.50
2018-08-28T04:43:07.890Z,64.30
2018-08-28T04:48:11.691Z,64.90
2018-08-28T04:53:15.986Z,64.50
2018-08-28T04:58:19.930Z,63.50
2018-08-28T05:03:24.166Z,63.60
2018-08-28T05:08:31.143Z,63.80
2018-08-28T05:13:34.963Z,64.20
2018-08-28T05:18:39.009Z,64.30
2018-08-28T05:23:42.882Z,64.50
2018-08-28T05:28:46.676Z,64.50
2018-08-28T05:33:50.813Z,64.30
2018-08-28T05:38:54.626Z,64.30
2018-08-28T05:43:58.475Z,64.10
2018-08-28T05:49:02.484Z,64.00
2018-08-28T05:54:06.241Z,63.60
2018-08-28T05:59:12.227Z,63.80
2018-08-28T06:04:15.962Z,64.30
2018-08-28T06:09:25.129Z,64.10
2018-08-28T06:14:28.999Z,63.90
2018-08-28T06:19:33.919Z,63.50
2018-08-28T06:24:37.725Z,62.70
2018-08-28T06:29:41.484Z,61.40
2018-08-28T06:34:45.255Z,61.40
2018-08-28T06:39:49.151Z,62.00
2018-08-28T06:44:52.847Z,61.40
2018-08-28T06:49:56.887Z,60.90
2018-08-28T06:55:00.698Z,60.50
2018-08-28T07:00:04.567Z,59.90
2018-08-28T07:05:08.421Z,59.60
2018-08-28T07:10:12.253Z,59.20
2018-08-28T07:15:16.047Z,58.80
2018-08-28T07:20:19.912Z,58.60
2018-08-28T07:25:23.791Z,58.30
2018-08-28T07:30:27.749Z,58.50
2018-08-28T07:35:31.542Z,56.70
2018-08-28T07:40:35.402Z,56.60
2018-08-28T07:45:39.324Z,55.50
2018-08-28T07:50:43.266Z,55.10
2018-08-28T07:55:47.523Z,55.90
2018-08-28T08:00:51.722Z,55.30
2018-08-28T08:05:56.661Z,55.70
2018-08-28T08:11:00.556Z,54.20
2018-08-28T08:16:04.393Z,54.40
2018-08-28T08:21:08.270Z,53.80
2018-08-28T08:26:12.157Z,53.50
2018-08-28T08:31:16.055Z,52.70
2018-08-28T08:36:19.893Z,48.90
2018-08-28T08:41:23.800Z,47.60
2018-08-28T08:46:27.657Z,46.70
2018-08-28T08:51:31.475Z,48.30
2018-08-28T08:56:35.291Z,48.70
2018-08-28T09:01:39.203Z,49.40
2018-08-28T09:06:42.970Z,49.30
2018-08-28T09:11:46.786Z,48.90
2018-08-28T09:16:50.595Z,49.40
2018-08-28T09:21:54.388Z,48.00
2018-08-28T09:26:58.447Z,47.00
2018-08-28T09:32:02.395Z,46.60
2018-08-28T09:37:06.443Z,46.70
2018-08-28T09:42:10.303Z,46.40
2018-08-28T09:47:14.066Z,45.60
2018-08-28T09:52:17.867Z,45.40
2018-08-28T09:57:21.714Z,46.30
2018-08-28T10:02:25.546Z,47.10
2018-08-28T10:07:29.304Z,46.30
2018-08-28T10:12:33.152Z,46.30
2018-08-28T10:17:36.973Z,45.70
2018-08-28T10:22:41.154Z,45.60
2018-08-28T10:27:44.983Z,44.80
2018-08-28T10:32:48.761Z,44.10
2018-08-28T10:43:21.387Z,42.80
2018-08-28T10:48:30.640Z,42.70
2018-08-28T10:53:34.472Z,41.60
2018-08-28T10:58:38.316Z,39.70
2018-08-28T11:03:42.253Z,40.40
2018-08-28T11:08:46.106Z,39.80
2018-08-28T11:13:49.845Z,40.00
2018-08-28T11:18:53.577Z,40.50
2018-08-28T11:23:57.880Z,39.50
2018-08-28T11:29:01.688Z,38.90
2018-08-28T11:34:05.648Z,38.10
2018-08-28T11:39:16.645Z,37.40
2018-08-28T11:44:20.842Z,37.60
2018-08-28T11:49:24.591Z,36.80
2018-08-28T11:54:28.474Z,36.60
2018-08-28T11:59:37.964Z,37.60
2018-08-28T12:09:45.239Z,35.40
2018-08-28T12:14:49.111Z,35.90
2018-08-28T12:19:53.091Z,36.90
2018-08-28T12:24:56.996Z,36.30
2018-08-28T12:30:00.861Z,36.30
2018-08-28T12:35:04.918Z,35.40
2018-08-28T12:40:08.798Z,36.00
2018-08-28T12:45:12.651Z,35.50
2018-08-28T12:50:16.475Z,35.40
2018-08-28T12:55:20.386Z,34.10
2018-08-28T13:00:24.196Z,32.50
2018-08-28T13:05:28.302Z,31.40
2018-08-28T13:10:32.271Z,32.30
2018-08-28T13:15:36.202Z,32.10
2018-08-28T13:20:40.056Z,31.80
2018-08-28T13:25:43.948Z,30.80
2018-08-28T13:30:47.855Z,31.20
2018-08-28T13:35:51.845Z,31.60
2018-08-28T13:40:55.807Z,32.10
2018-08-28T13:45:59.720Z,32.00
2018-08-28T13:51:03.643Z,31.60
2018-08-28T13:56:07.578Z,30.10
2018-08-28T14:01:11.419Z,30.50
2018-08-28T14:06:15.664Z,30.80
2018-08-28T14:11:19.688Z,30.10
2018-08-28T14:16:23.880Z,30.20
2018-08-28T14:21:27.924Z,30.00
2018-08-28T14:26:32.129Z,29.60
2018-08-28T14:31:36.187Z,29.40
2018-08-28T14:36:42.253Z,29.20
2018-08-28T14:41:47.008Z,29.50
2018-08-28T14:46:51.639Z,28.50
2018-08-28T14:51:56.076Z,28.70
2018-08-28T14:57:00.307Z,27.80
2018-08-28T15:02:04.630Z,27.80
2018-08-28T15:07:09.053Z,27.90
2018-08-28T15:12:12.707Z,27.90
2018-08-28T15:17:16.636Z,27.90
2018-08-28T15:22:21.004Z,28.80
2018-08-28T15:27:25.033Z,27.60
2018-08-28T15:32:28.888Z,28.10
2018-08-28T15:37:33.024Z,27.80
2018-08-28T15:42:36.942Z,26.50
2018-08-28T15:47:41.466Z,27.00
2018-08-28T15:52:45.267Z,25.40
2018-08-28T15:57:49.320Z,25.50
2018-08-28T16:02:53.235Z,26.00
2018-08-28T16:07:57.138Z,25.50
2018-08-28T16:13:01.026Z,26.20
2018-08-28T16:18:05.014Z,26.30
2018-08-28T16:23:13.552Z,25.60
2018-08-28T16:28:17.657Z,26.50
2018-08-28T16:33:21.484Z,25.30
2018-08-28T16:38:25.199Z,26.30
2018-08-28T16:43:28.977Z,25.90
2018-08-28T16:48:33.263Z,25.80
2018-08-28T16:53:37.255Z,27.10
2018-08-28T16:58:41.066Z,27.40
2018-08-28T17:03:46.042Z,28.20
2018-08-28T17:08:54.376Z,28.70
2018-08-28T17:13:58.372Z,28.80
2018-08-28T17:19:02.398Z,28.90
2018-08-28T17:24:06.182Z,29.60
2018-08-28T17:29:12.507Z,30.10
2018-08-28T17:34:16.380Z,30.10
2018-08-28T17:39:20.456Z,31.80
2018-08-28T17:44:24.428Z,33.80
2018-08-28T17:49:28.532Z,34.00
2018-08-28T17:54:32.583Z,34.80
2018-08-28T17:59:36.437Z,35.70
2018-08-28T18:04:40.319Z,36.70
2018-08-28T18:09:44.610Z,36.80
2018-08-28T18:14:48.548Z,37.40
2018-08-28T18:19:52.419Z,38.40
2018-08-28T18:24:56.270Z,39.20
2018-08-28T18:30:00.238Z,39.00
2018-08-28T18:35:04.376Z,39.00
2018-08-28T18:40:08.138Z,39.50
2018-08-28T18:45:12.034Z,39.40
2018-08-28T18:50:15.907Z,40.30
2018-08-28T18:55:19.747Z,41.30
2018-08-28T19:00:23.693Z,41.80
2018-08-28T19:05:27.778Z,42.20
2018-08-28T19:10:31.881Z,41.80
2018-08-28T19:15:35.779Z,43.10
2018-08-28T19:20:39.749Z,42.80
2018-08-28T19:25:44.445Z,44.30
2018-08-28T19:30:48.352Z,44.40
2018-08-28T19:35:52.118Z,43.80
2018-08-28T19:40:55.938Z,44.50
2018-08-28T19:45:59.873Z,45.10
2018-08-28T19:51:04.616Z,44.90
2018-08-28T19:56:08.642Z,44.70
2018-08-28T20:01:12.526Z,45.30
2018-08-28T20:06:16.592Z,45.80
2018-08-28T20:11:20.452Z,45.90
2018-08-28T20:16:24.371Z,46.00
2018-08-28T20:21:28.370Z,46.20
2018-08-28T20:26:40.385Z,45.70
2018-08-28T20:31:44.372Z,46.20
2018-08-28T20:36:48.338Z,46.60
2018-08-28T20:41:52.194Z,47.10
2018-08-28T20:46:56.063Z,47.80
2018-08-28T20:52:00.033Z,47.90
2018-08-28T20:57:04.445Z,48.80
2018-08-28T21:02:08.463Z,49.30
2018-08-28T21:07:12.513Z,49.90
2018-08-28T21:12:16.535Z,50.40
2018-08-28T21:17:20.509Z,50.90
2018-08-28T21:22:24.384Z,51.90
2018-08-28T21:27:28.118Z,51.70
2018-08-28T21:32:32.050Z,52.30
2018-08-28T21:37:35.987Z,52.90
2018-08-28T21:42:39.794Z,52.90
2018-08-28T21:47:43.655Z,53.20
2018-08-28T21:52:47.533Z,53.60
2018-08-28T21:57:51.639Z,54.00
2018-08-28T22:02:55.431Z,54.20
2018-08-28T22:08:21.132Z,54.30
2018-08-28T22:13:25.447Z,54.60
2018-08-28T22:18:29.446Z,54.60
2018-08-28T22:23:33.561Z,54.60
2018-08-28T22:28:37.617Z,54.70
2018-08-28T22:33:41.593Z,54.90
2018-08-28T22:38:45.397Z,55.10
2018-08-28T22:43:49.782Z,55.20
2018-08-28T22:48:53.954Z,55.20
2018-08-28T22:53:57.838Z,55.50
2018-08-28T22:59:01.984Z,55.90
2018-08-28T23:04:05.902Z,56.00
2018-08-28T23:09:11.974Z,56.20
2018-08-28T23:14:15.916Z,56.50
2018-08-28T23:19:19.941Z,56.50
2018-08-28T23:24:23.780Z,56.70
2018-08-28T23:29:34.038Z,56.90
2018-08-28T23:34:37.892Z,57.00
2018-08-28T23:39:41.674Z,57.40
2018-08-28T23:44:45.419Z,57.50
2018-08-28T23:49:49.102Z,57.60
2018-08-28T23:54:52.874Z,57.80
2018-08-28T23:59:56.586Z,57.40
